createdAt,value
2022-11-29T00:02:18.654Z,14.80
2022-11-29T00:04:46.411Z,15.50
2022-11-29T00:07:15.756Z,15.30
2022-11-29T00:09:43.492Z,15.07
2022-11-29T00:12:14.135Z,14.63
2022-11-29T00:14:42.854Z,14.33
2022-11-29T00:17:10.749Z,14.97
2022-11-29T00:19:38.890Z,15.63
2022-11-29T00:22:06.597Z,14.87
2022-11-29T00:24:36.707Z,14.80
2022-11-29T00:27:04.522Z,14.90
2022-11-29T00:29:32.331Z,15.00
2022-11-29T00:32:00.550Z,15.30
2022-11-29T00:34:28.571Z,15.33
2022-11-29T00:36:56.362Z,14.07
2022-11-29T00:39:24.210Z,14.30
2022-11-29T00:41:53.422Z,14.63
2022-11-29T00:44:21.331Z,14.53
2022-11-29T00:46:49.599Z,13.03
2022-11-29T00:49:17.805Z,14.80
2022-11-29T00:51:45.518Z,14.80
2022-11-29T00:54:13.480Z,16.07
2022-11-29T00:56:41.159Z,17.60
2022-11-29T00:59:10.207Z,17.87
2022-11-29T01:01:37.886Z,16.97
2022-11-29T01:04:05.949Z,16.93
2022-11-29T01:06:33.726Z,18.13
2022-11-29T01:09:01.543Z,17.63
2022-11-29T01:11:29.813Z,17.20
2022-11-29T01:13:59.891Z,17.00
2022-11-29T01:16:31.440Z,16.67
2022-11-29T01:18:59.203Z,17.17
2022-11-29T01:21:27.040Z,17.00
2022-11-29T01:23:55.199Z,17.20
2022-11-29T01:26:25.915Z,16.63
2022-11-29T01:28:55.748Z,17.37
2022-11-29T01:31:25.464Z,17.57
2022-11-29T01:33:56.444Z,17.00
2022-11-29T01:36:25.461Z,18.23
2022-11-29T01:38:53.850Z,17.63
2022-11-29T01:41:23.632Z,17.47
2022-11-29T01:44:01.584Z,17.97
2022-11-29T01:46:31.074Z,18.13
2022-11-29T01:49:05.171Z,17.53
2022-11-29T01:51:35.633Z,17.23
2022-11-29T01:54:03.652Z,17.37
2022-11-29T01:56:34.659Z,17.90
2022-11-29T01:59:03.974Z,17.57
2022-11-29T02:01:32.489Z,17.23
2022-11-29T02:04:01.822Z,17.07
2022-11-29T02:06:31.159Z,17.00
2022-11-29T02:08:59.113Z,16.20
2022-11-29T02:11:57.509Z,16.60
2022-11-29T02:14:36.989Z,16.07
2022-11-29T02:17:16.169Z,15.77
2022-11-29T02:20:22.875Z,16.13
2022-11-29T02:22:58.183Z,15.90
2022-11-29T02:25:43.866Z,15.53
2022-11-29T02:29:04.161Z,15.10
2022-11-29T02:31:55.215Z,15.00
2022-11-29T02:34:39.858Z,15.40
2022-11-29T02:37:26.009Z,14.80
2022-11-29T02:40:07.981Z,15.17
2022-11-29T02:42:56.794Z,15.77
2022-11-29T02:45:42.823Z,14.13
2022-11-29T02:48:23.157Z,14.90
2022-11-29T02:50:58.939Z,15.57
2022-11-29T02:53:33.409Z,13.73
2022-11-29T02:56:11.271Z,14.33
2022-11-29T02:58:48.622Z,15.03
2022-11-29T03:01:22.194Z,14.50
2022-11-29T03:03:58.097Z,13.67
2022-11-29T03:06:37.108Z,14.03
2022-11-29T03:09:10.564Z,12.90
2022-11-29T03:11:44.462Z,13.07
2022-11-29T03:14:18.418Z,13.97
2022-11-29T03:16:53.247Z,13.33
2022-11-29T03:19:37.261Z,12.97
2022-11-29T03:22:13.882Z,13.33
2022-11-29T03:24:51.806Z,12.97
2022-11-29T03:27:26.498Z,12.93
2022-11-29T03:30:00.590Z,12.43
2022-11-29T03:32:36.063Z,13.00
2022-11-29T03:35:11.276Z,12.83
2022-11-29T03:37:48.747Z,13.30
2022-11-29T03:40:20.604Z,11.67
2022-11-29T03:43:01.729Z,12.57
2022-11-29T03:45:34.821Z,11.80
2022-11-29T03:48:07.766Z,13.00
2022-11-29T03:50:40.048Z,12.00
2022-11-29T03:53:18.117Z,11.83
2022-11-29T03:55:51.768Z,11.33
2022-11-29T03:58:43.958Z,12.03
2022-11-29T04:01:44.142Z,11.57
2022-11-29T04:04:50.361Z,10.40
2022-11-29T04:07:35.965Z,11.57
2022-11-29T04:10:18.555Z,11.50
2022-11-29T04:13:17.106Z,10.57
2022-11-29T04:16:11.711Z,10.33
2022-11-29T04:19:10.565Z,10.30
2022-11-29T04:21:57.097Z,9.83
2022-11-29T04:24:56.049Z,10.23
2022-11-29T04:27:41.562Z,10.83
2022-11-29T04:30:15.060Z,10.17
2022-11-29T04:33:06.773Z,11.13
2022-11-29T04:35:42.783Z,11.07
2022-11-29T04:38:33.421Z,10.47
2022-11-29T04:41:20.035Z,10.70
2022-11-29T04:43:59.936Z,11.17
2022-11-29T04:46:41.412Z,10.93
2022-11-29T04:49:35.031Z,10.73
2022-11-29T04:52:25.030Z,11.73
2022-11-29T04:55:00.982Z,10.17
2022-11-29T04:57:36.892Z,10.60
2022-11-29T05:00:09.904Z,10.87
2022-11-29T05:02:46.889Z,11.27
2022-11-29T05:05:25.646Z,10.80
2022-11-29T05:08:03.215Z,11.63
2022-11-29T05:10:36.484Z,11.47
2022-11-29T05:13:13.562Z,10.37
2022-11-29T05:16:04.224Z,11.43
2022-11-29T05:18:55.293Z,11.13
2022-11-29T05:21:36.706Z,12.30
2022-11-29T05:24:18.395Z,11.90
2022-11-29T05:26:53.521Z,12.03
2022-11-29T05:29:30.730Z,13.27
2022-11-29T05:32:17.852Z,13.07
2022-11-29T05:35:02.394Z,10.93
2022-11-29T05:37:39.543Z,11.83
2022-11-29T05:40:34.617Z,14.97
2022-11-29T05:43:14.027Z,12.57
2022-11-29T05:45:48.092Z,10.97
2022-11-29T05:48:25.806Z,11.10
2022-11-29T05:51:07.011Z,11.83
2022-11-29T05:53:43.440Z,11.73
2022-11-29T05:56:18.969Z,12.57
2022-11-29T05:58:51.596Z,12.33
2022-11-29T06:01:23.965Z,11.93
2022-11-29T06:04:03.054Z,10.90
2022-11-29T06:06:39.687Z,11.20
2022-11-29T06:09:16.202Z,11.87
2022-11-29T06:11:47.823Z,12.10
2022-11-29T06:14:43.686Z,13.43
2022-11-29T06:17:48.709Z,11.63
2022-11-29T06:20:34.359Z,11.33
2022-11-29T06:23:29.198Z,10.73
2022-11-29T06:26:12.257Z,9.67
2022-11-29T06:28:54.330Z,11.20
2022-11-29T06:31:28.090Z,10.57
2022-11-29T06:34:01.822Z,10.67
2022-11-29T06:36:36.008Z,11.57
2022-11-29T06:39:04.570Z,10.63
2022-11-29T06:41:32.824Z,11.87
2022-11-29T06:44:01.249Z,11.70
2022-11-29T06:46:40.475Z,10.47
2022-11-29T06:49:13.318Z,11.40
2022-11-29T06:51:52.858Z,11.87
2022-11-29T06:54:32.729Z,20.17
2022-11-29T06:57:10.110Z,13.23
2022-11-29T06:59:51.655Z,11.47
2022-11-29T07:02:35.230Z,11.73
2022-11-29T07:05:15.058Z,11.47
2022-11-29T07:07:46.183Z,11.47
2022-11-29T07:10:18.449Z,11.17
2022-11-29T07:12:47.289Z,11.20
2022-11-29T07:15:17.408Z,11.53
2022-11-29T07:17:57.258Z,11.57
2022-11-29T07:20:35.452Z,11.00
2022-11-29T07:23:15.102Z,11.50
2022-11-29T07:25:51.762Z,11.93
2022-11-29T07:28:31.454Z,12.00
2022-11-29T07:31:06.869Z,12.10
2022-11-29T07:33:46.902Z,12.47
2022-11-29T07:36:22.988Z,35.30
2022-11-29T07:39:04.380Z,16.17
2022-11-29T07:41:42.169Z,12.93
2022-11-29T07:44:19.617Z,12.67
2022-11-29T07:46:47.399Z,13.07
2022-11-29T07:49:15.281Z,11.80
2022-11-29T07:51:43.049Z,12.80
2022-11-29T07:54:16.488Z,12.97
2022-11-29T07:56:44.249Z,12.23
2022-11-29T07:59:12.903Z,12.80
2022-11-29T08:01:41.360Z,12.97
2022-11-29T08:04:10.065Z,12.20
2022-11-29T08:06:38.196Z,12.57
2022-11-29T08:09:07.583Z,11.50
2022-11-29T08:11:36.699Z,12.23
2022-11-29T08:14:06.250Z,13.00
2022-11-29T08:16:34.279Z,11.90
2022-11-29T08:19:02.035Z,13.30
2022-11-29T08:21:29.729Z,13.20
2022-11-29T08:23:57.379Z,13.10
2022-11-29T08:26:29.855Z,12.77
2022-11-29T08:29:00.668Z,12.43
2022-11-29T08:31:28.447Z,12.03
2022-11-29T08:33:56.198Z,12.20
2022-11-29T08:36:23.889Z,14.07
2022-11-29T08:38:57.176Z,12.93
2022-11-29T08:41:29.658Z,11.23
2022-11-29T08:43:58.022Z,11.73
2022-11-29T08:46:47.147Z,11.93
2022-11-29T08:49:14.865Z,11.73
2022-11-29T08:51:42.582Z,11.50
2022-11-29T08:54:09.563Z,13.10
2022-11-29T08:59:25.616Z,11.77
2022-11-29T09:01:54.710Z,11.60
2022-11-29T09:04:22.420Z,12.73
2022-11-29T09:06:50.385Z,18.20
2022-11-29T09:09:18.605Z,49.83
2022-11-29T09:11:49.398Z,47.23
2022-11-29T09:14:18.588Z,50.37
2022-11-29T09:16:46.427Z,30.77
2022-11-29T09:19:16.138Z,22.93
2022-11-29T09:21:43.842Z,18.10
2022-11-29T09:24:11.888Z,14.77
2022-11-29T09:26:40.728Z,13.97
2022-11-29T09:29:09.242Z,13.23
2022-11-29T09:31:36.978Z,13.07
2022-11-29T09:34:04.994Z,12.30
2022-11-29T09:36:34.475Z,12.93
2022-11-29T09:39:03.664Z,12.30
2022-11-29T09:41:56.448Z,13.03
2022-11-29T09:44:36.401Z,13.53
2022-11-29T09:47:20.319Z,13.03
2022-11-29T09:49:57.322Z,13.50
2022-11-29T09:52:37.635Z,12.73
2022-11-29T09:55:23.657Z,13.30
2022-11-29T09:57:53.644Z,12.30
2022-11-29T10:00:22.143Z,12.73
2022-11-29T10:02:55.128Z,13.40
2022-11-29T10:05:28.485Z,13.43
2022-11-29T10:08:02.500Z,12.87
2022-11-29T10:10:33.753Z,13.50
2022-11-29T10:13:06.852Z,13.80
2022-11-29T10:15:41.501Z,12.73
2022-11-29T10:18:17.902Z,14.43
2022-11-29T10:20:49.455Z,14.13
2022-11-29T10:23:24.841Z,14.10
2022-11-29T10:25:54.575Z,13.87
2022-11-29T10:28:26.043Z,14.67
2022-11-29T10:30:56.505Z,14.53
2022-11-29T10:33:28.244Z,14.77
2022-11-29T10:35:58.044Z,15.00
2022-11-29T10:38:31.538Z,15.50
2022-11-29T10:41:05.772Z,15.27
2022-11-29T10:43:33.541Z,15.60
2022-11-29T10:46:02.561Z,15.97
2022-11-29T10:48:34.062Z,15.40
2022-11-29T10:51:02.657Z,15.17
2022-11-29T10:53:36.835Z,15.63
2022-11-29T10:56:08.009Z,17.07
2022-11-29T10:58:36.514Z,21.97
2022-11-29T11:01:06.909Z,18.60
2022-11-29T11:03:38.550Z,17.53
2022-11-29T11:06:16.597Z,17.83
2022-11-29T11:08:48.506Z,18.03
2022-11-29T11:11:25.650Z,18.17
2022-11-29T11:14:00.520Z,19.87
2022-11-29T11:16:31.686Z,18.60
2022-11-29T11:19:25.816Z,17.67
2022-11-29T11:21:53.593Z,20.50
2022-11-29T11:24:26.056Z,25.10
2022-11-29T11:26:53.940Z,18.77
2022-11-29T11:29:26.087Z,17.70
2022-11-29T11:31:57.747Z,17.03
2022-11-29T11:34:31.697Z,17.17
2022-11-29T11:37:20.031Z,18.57
2022-11-29T11:39:51.025Z,17.83
2022-11-29T11:42:40.551Z,15.90
2022-11-29T11:45:28.272Z,16.97
2022-11-29T11:47:59.139Z,16.50
2022-11-29T11:50:30.539Z,17.77
2022-11-29T11:53:00.580Z,18.50
2022-11-29T11:55:35.549Z,16.63
2022-11-29T11:58:10.651Z,18.00
2022-11-29T12:03:46.360Z,17.30
2022-11-29T12:06:32.776Z,16.13
2022-11-29T12:09:06.145Z,15.03
2022-11-29T12:11:42.543Z,17.40
2022-11-29T12:14:21.855Z,17.83
2022-11-29T12:16:51.181Z,17.17
2022-11-29T12:19:23.605Z,19.23
2022-11-29T12:21:57.002Z,18.63
2022-11-29T12:24:29.982Z,18.03
2022-11-29T12:27:04.127Z,18.00
2022-11-29T12:29:35.239Z,18.23
2022-11-29T12:32:19.015Z,19.27
2022-11-29T12:35:07.423Z,21.40
2022-11-29T12:37:44.229Z,18.60
2022-11-29T12:40:20.769Z,17.50
2022-11-29T12:42:58.448Z,16.90
2022-11-29T12:45:37.054Z,16.50
2022-11-29T12:48:14.643Z,16.33
2022-11-29T12:50:53.643Z,15.60
2022-11-29T12:53:48.390Z,14.30
2022-11-29T12:56:20.241Z,15.07
2022-11-29T12:59:06.616Z,14.17
2022-11-29T13:01:49.381Z,16.03
2022-11-29T13:04:24.818Z,15.43
2022-11-29T13:07:00.833Z,17.27
2022-11-29T13:09:58.034Z,15.33
2022-11-29T13:12:33.836Z,14.57
2022-11-29T13:15:06.412Z,13.40
2022-11-29T13:17:41.219Z,13.43
2022-11-29T13:20:24.248Z,13.10
2022-11-29T13:22:58.473Z,14.13
2022-11-29T13:25:31.453Z,13.33
2022-11-29T13:28:02.773Z,14.07
2022-11-29T13:30:32.476Z,12.70
2022-11-29T13:33:05.525Z,11.83
2022-11-29T13:35:39.800Z,12.03
2022-11-29T13:38:16.891Z,13.67
2022-11-29T13:40:54.341Z,12.77
2022-11-29T13:43:30.577Z,11.53
2022-11-29T13:46:06.489Z,13.60
2022-11-29T13:48:37.575Z,11.77
2022-11-29T13:51:29.828Z,12.70
2022-11-29T13:53:59.784Z,11.93
2022-11-29T13:56:32.733Z,10.97
2022-11-29T13:59:02.024Z,12.17
2022-11-29T14:01:31.083Z,13.40
2022-11-29T14:04:08.492Z,12.30
2022-11-29T14:06:38.377Z,12.60
2022-11-29T14:09:29.761Z,12.10
2022-11-29T14:12:07.186Z,12.37
2022-11-29T14:14:40.206Z,11.60
2022-11-29T14:17:34.293Z,14.37
2022-11-29T14:20:36.026Z,12.07
2022-11-29T14:23:18.881Z,12.37
2022-11-29T14:26:23.702Z,12.13
2022-11-29T14:28:54.541Z,12.50
2022-11-29T14:31:49.436Z,11.60
2022-11-29T14:34:27.793Z,12.63
2022-11-29T14:37:04.106Z,13.20
2022-11-29T14:39:42.132Z,12.73
2022-11-29T14:42:18.379Z,13.97
2022-11-29T14:44:49.335Z,14.00
2022-11-29T14:47:24.568Z,14.40
2022-11-29T14:49:55.846Z,13.60
2022-11-29T14:52:32.385Z,14.87
2022-11-29T14:55:09.337Z,23.87
2022-11-29T14:58:06.323Z,19.13
2022-11-29T15:01:10.114Z,17.30
2022-11-29T15:03:46.385Z,15.33
2022-11-29T15:06:26.128Z,15.03
2022-11-29T15:09:01.745Z,14.50
2022-11-29T15:11:48.124Z,14.47
2022-11-29T15:14:24.136Z,13.97
2022-11-29T15:17:17.004Z,15.40
2022-11-29T15:20:04.187Z,18.83
2022-11-29T15:22:48.003Z,17.37
2022-11-29T15:25:19.936Z,17.40
2022-11-29T15:27:52.173Z,17.10
2022-11-29T15:30:21.536Z,15.43
2022-11-29T15:32:49.319Z,14.87
2022-11-29T15:35:19.407Z,15.83
2022-11-29T15:37:50.088Z,16.07
2022-11-29T15:40:19.979Z,15.47
2022-11-29T15:42:51.314Z,15.37
2022-11-29T15:45:27.795Z,16.07
2022-11-29T15:47:56.520Z,15.23
2022-11-29T15:50:26.698Z,15.27
2022-11-29T15:53:00.376Z,15.60
2022-11-29T15:55:28.698Z,16.03
2022-11-29T15:58:03.963Z,14.90
2022-11-29T16:00:36.718Z,16.23
2022-11-29T16:03:06.095Z,15.80
2022-11-29T16:05:36.070Z,15.77
2022-11-29T16:08:08.644Z,14.83
2022-11-29T16:10:38.351Z,16.23
2022-11-29T16:13:08.425Z,17.30
2022-11-29T16:15:38.509Z,16.10
2022-11-29T16:18:12.294Z,15.37
2022-11-29T16:20:40.623Z,16.60
2022-11-29T16:23:14.611Z,16.07
2022-11-29T16:25:56.780Z,14.47
2022-11-29T16:28:27.247Z,16.37
2022-11-29T16:30:55.011Z,16.53
2022-11-29T16:33:25.361Z,17.27
2022-11-29T16:36:04.640Z,16.50
2022-11-29T16:38:34.127Z,16.90
2022-11-29T16:41:04.917Z,15.57
2022-11-29T16:43:54.012Z,16.50
2022-11-29T16:46:31.918Z,16.03
2022-11-29T16:49:02.547Z,17.30
2022-11-29T16:51:48.262Z,17.73
2022-11-29T16:54:25.587Z,17.33
2022-11-29T16:56:55.093Z,16.77
2022-11-29T16:59:28.101Z,15.97
2022-11-29T17:01:56.722Z,17.17
2022-11-29T17:04:25.146Z,16.90
2022-11-29T17:06:53.847Z,16.63
2022-11-29T17:09:26.780Z,15.47
2022-11-29T17:11:55.180Z,15.93
2022-11-29T17:14:23.357Z,16.33
2022-11-29T17:16:51.984Z,17.33
2022-11-29T17:19:22.084Z,17.43
2022-11-29T17:21:49.763Z,16.53
2022-11-29T17:24:19.111Z,17.40
2022-11-29T17:26:48.107Z,17.63
2022-11-29T17:29:16.840Z,17.83
2022-11-29T17:31:45.663Z,18.83
2022-11-29T17:34:14.039Z,18.43
2022-11-29T17:36:41.780Z,18.37
2022-11-29T17:39:09.808Z,20.17
2022-11-29T17:41:37.953Z,19.30
2022-11-29T17:44:07.085Z,21.73
2022-11-29T17:46:36.920Z,22.27
2022-11-29T17:49:06.476Z,21.37
2022-11-29T17:51:53.771Z,21.27
2022-11-29T17:54:22.025Z,19.87
2022-11-29T17:56:50.349Z,20.67
2022-11-29T17:59:19.569Z,20.20
2022-11-29T18:01:48.008Z,20.50
2022-11-29T18:04:16.437Z,20.83
2022-11-29T18:06:49.411Z,22.83
2022-11-29T18:09:18.430Z,22.03
2022-11-29T18:11:49.616Z,20.10
2022-11-29T18:14:21.441Z,20.50
2022-11-29T18:16:49.283Z,19.70
2022-11-29T18:19:18.692Z,18.90
2022-11-29T18:21:47.012Z,18.83
2022-11-29T18:24:15.123Z,21.00
2022-11-29T18:26:43.305Z,21.70
2022-11-29T18:29:11.268Z,21.00
2022-11-29T18:31:42.661Z,23.70
2022-11-29T18:34:13.119Z,22.00
2022-11-29T18:36:43.829Z,20.53
2022-11-29T18:39:15.053Z,21.23
2022-11-29T18:41:44.634Z,20.60
2022-11-29T18:44:14.300Z,21.60
2022-11-29T18:46:45.538Z,20.57
2022-11-29T18:49:15.092Z,21.30
2022-11-29T18:51:44.713Z,21.03
2022-11-29T18:54:13.759Z,18.63
2022-11-29T18:56:42.332Z,19.10
2022-11-29T18:59:12.024Z,19.30
2022-11-29T19:01:42.576Z,18.67
2022-11-29T19:04:14.690Z,18.90
2022-11-29T19:06:43.227Z,20.77
2022-11-29T19:09:14.138Z,18.53
2022-11-29T19:11:42.339Z,18.27
2022-11-29T19:14:12.759Z,19.43
2022-11-29T19:16:42.667Z,19.17
2022-11-29T19:19:11.881Z,19.57
2022-11-29T19:21:40.481Z,21.03
2022-11-29T19:24:13.900Z,21.40
2022-11-29T19:26:44.330Z,21.73
2022-11-29T19:29:12.202Z,21.27
2022-11-29T19:31:40.231Z,22.50
2022-11-29T19:34:08.156Z,21.90
2022-11-29T19:36:42.609Z,20.57
2022-11-29T19:39:11.806Z,21.73
2022-11-29T19:41:39.612Z,21.20
2022-11-29T19:44:08.706Z,22.07
2022-11-29T19:46:38.922Z,21.53
2022-11-29T19:49:08.525Z,21.20
2022-11-29T19:51:37.734Z,20.47
2022-11-29T19:54:07.955Z,21.43
2022-11-29T19:56:35.755Z,24.73
2022-11-29T19:59:03.378Z,21.67
2022-11-29T20:01:40.395Z,20.70
2022-11-29T20:04:09.574Z,21.63
2022-11-29T20:06:38.968Z,19.97
2022-11-29T20:09:07.477Z,20.50
2022-11-29T20:11:35.287Z,19.43
2022-11-29T20:14:05.511Z,21.47
2022-11-29T20:16:33.576Z,21.47
2022-11-29T20:19:01.969Z,21.37
2022-11-29T20:21:31.944Z,24.10
2022-11-29T20:24:02.842Z,22.87
2022-11-29T20:26:32.866Z,24.83
2022-11-29T20:29:01.698Z,24.40
2022-11-29T20:31:29.940Z,23.03
2022-11-29T20:33:58.279Z,20.50
2022-11-29T20:36:38.890Z,23.73
2022-11-29T20:39:19.815Z,23.07
2022-11-29T20:42:00.477Z,21.27
2022-11-29T20:44:37.380Z,19.93
2022-11-29T20:47:14.903Z,18.90
2022-11-29T20:49:42.872Z,18.97
2022-11-29T20:52:19.960Z,20.17
2022-11-29T20:54:49.014Z,19.23
2022-11-29T20:57:16.880Z,19.53
2022-11-29T20:59:44.875Z,18.33
2022-11-29T21:02:12.725Z,18.47
2022-11-29T21:04:40.435Z,18.60
2022-11-29T21:07:08.147Z,16.57
2022-11-29T21:09:35.824Z,16.13
2022-11-29T21:12:05.680Z,15.87
2022-11-29T21:14:33.815Z,16.70
2022-11-29T21:17:02.129Z,15.23
2022-11-29T21:19:30.279Z,16.93
2022-11-29T21:22:07.008Z,16.03
2022-11-29T21:24:44.938Z,16.13
2022-11-29T21:27:28.307Z,15.70
2022-11-29T21:29:56.767Z,15.27
2022-11-29T21:32:26.824Z,15.37
2022-11-29T21:34:54.664Z,15.07
2022-11-29T21:37:26.074Z,14.63
2022-11-29T21:39:54.373Z,16.10
2022-11-29T21:42:23.610Z,15.97
2022-11-29T21:44:51.228Z,15.43
2022-11-29T21:47:18.971Z,14.90
2022-11-29T21:49:46.861Z,15.37
2022-11-29T21:52:20.637Z,14.00
2022-11-29T21:54:50.131Z,13.97
2022-11-29T21:57:17.842Z,15.67
2022-11-29T21:59:46.890Z,15.33
2022-11-29T22:02:14.675Z,14.33
2022-11-29T22:04:42.485Z,15.80
2022-11-29T22:07:10.328Z,15.57
2022-11-29T22:09:38.045Z,16.70
2022-11-29T22:12:25.955Z,15.90
2022-11-29T22:14:54.961Z,16.50
2022-11-29T22:17:22.640Z,17.47
2022-11-29T22:19:50.300Z,17.20
2022-11-29T22:22:18.372Z,17.03
2022-11-29T22:24:46.192Z,15.33
2022-11-29T22:27:14.056Z,17.40
2022-11-29T22:29:41.802Z,17.57
2022-11-29T22:32:10.821Z,17.97
2022-11-29T22:34:38.542Z,17.17
2022-11-29T22:37:06.220Z,18.83
2022-11-29T22:39:33.961Z,19.07
2022-11-29T22:42:01.623Z,19.70
2022-11-29T22:44:30.163Z,20.83
2022-11-29T22:46:57.901Z,19.13
2022-11-29T22:49:26.990Z,18.43
2022-11-29T22:51:54.910Z,19.60
2022-11-29T22:54:22.590Z,18.00
2022-11-29T22:56:50.349Z,19.93
2022-11-29T22:59:18.056Z,19.00
2022-11-29T23:01:45.915Z,18.50
2022-11-29T23:04:14.126Z,18.87
2022-11-29T23:06:44.550Z,19.60
2022-11-29T23:09:15.931Z,19.23
2022-11-29T23:11:44.617Z,17.77
2022-11-29T23:14:12.820Z,20.57
2022-11-29T23:16:40.742Z,19.10
2022-11-29T23:19:08.513Z,19.77
2022-11-29T23:21:38.439Z,20.33
2022-11-29T23:24:08.472Z,19.10
2022-11-29T23:26:39.589Z,19.93
2022-11-29T23:29:09.146Z,19.30
2022-11-29T23:31:36.806Z,19.10
2022-11-29T23:34:05.357Z,18.57
2022-11-29T23:36:33.389Z,19.57
2022-11-29T23:39:01.411Z,18.07
2022-11-29T23:41:30.435Z,20.47
2022-11-29T23:43:59.628Z,19.70
2022-11-29T23:46:27.321Z,19.80
2022-11-29T23:48:55.196Z,20.43
2022-11-29T23:51:22.871Z,19.37
2022-11-29T23:53:52.937Z,17.83
2022-11-29T23:56:22.324Z,18.37
2022-11-29T23:58:51.346Z,18.87
